Pittsfield, IL

8:48 AM CDT on October 25, 2014 (GMT -0500)
Pittsfield Penstone Municipal | Change Station
CLOSE
Current Station
Airport
Location: Pittsfield,
Elevation: 709 ft
Nearby Weather Stations

Elev 709 ft 39.64 °N, 90.78 °W | Updated 13 minutes ago

Fog
Fog
59 °F
Feels Like 59 °F
N
6
Wind Variable Wind from WSW

Today
High -- | Low -- °F
--% Chance of Precip.
Yesterday
High -- | Low -- °F
Precip. -- in
7:23 AM 6:10 PM
Waxing Crescent, 3% visible
Pressure 30.04 in
Visibility 0.2 miles
Clouds Overcast 100 ft
Dew Point 58 °F
Humidity 94%
Rainfall 0.00 in
Snow Depth Not available.
UV 0 out of 12
Pollen 2.00 out of 12
Air Quality Not available.
Flu Activity No Activity
METAR KPPQ 251335Z AUTO 25005KT M1/4SM FG OVC001 15/14 A3004 RMK AO2 T01510142

More Conditions Fewer Conditions

Pressure 30.04 in
Visibility 0.2 miles
Clouds Overcast 100 ft
Dew Point 58 °F
Humidity 94%
Rainfall 0.00 in
Snow Depth Not available.
UV 0 out of 12
Pollen 2.00 out of 12
Air Quality Not available.
Flu Activity No Activity
METAR KPPQ 251335Z AUTO 25005KT M1/4SM FG OVC001 15/14 A3004 RMK AO2 T01510142

More Conditions Fewer Conditions

10-Day Weather Forecast

Almanac

Astronomy

Oct. 25, 2014 Rise Set
Actual Time 7:23 AM CDT 6:10 PM CDT
Civil Twilight 6:56 AM CDT 6:37 PM CDT
Nautical Twilight 6:24 AM CDT 7:09 PM CDT
Astronomical Twilight 5:53 AM CDT 7:40 PM CDT
Moon 9:02 AM CDT 7:33 PM CDT
Length of Visible Light 11h 41m
Length of Day
10h 46m
Tomorrow will be 2m 23s shorter.
Waxing Crescent, 3% of the Moon is Illuminated
Today
Waxing Crescent
Oct 30
First Quarter
Nov 6
Full
Nov 14
Last Quarter
Nov 22
New

Today's Extremes

State Highs State Lows

Community

WunderPhotos

Upload Photos

1,764,830 photos uploaded!

Nearby

Snow Depth

Station Depth Elevation
No new snow has been reported.

Earthquake Activity

City Distance Mag. Time & Date
No recent earthquake activity has been reported nearby.
Minimum magnitude displayed is 2.5.

Coastal Water Temperatures

Place Temperature
No Stations Reporting

Nearby Weather Stations